Los Angeles, California
Current Conditions -  °F | °C
As of 12:15 AM on Friday 31 Oct 2014 (Local Time) from KCQT Reporting Station
Broken Clouds Broken Clouds  
Wind Chill: 18°   Ceiling: 1300
Heat Index: 18°   Visibility: 10mi
Dew Point: 15°   Wind: 0mph
Humidity: 81%   Direction: NA
Pressure: 29.96"   Gusts: NA
Location:  34.05°N, 118.24°W
Report Text: KCQT 310715Z AUTO 00000KT 10SM BKN013 18/15 A2996 RMK AO2 T01830150
Loading
Personal Weather Stations






























Interactive Weather Map
Tropical Storm Tracking
New forecast layout! Learn more

10-Day Weather Forecast

Advertisements
Track Severe Weather on mobile